Time;durP1;ratioP1;P1;durP2;ratioP2;P2;SDS_P1;SDS_P2;PMS_P1;PMS_P2;Temp;Humidity;BMP_temperature;BMP_pressure;BME280_temperature;BME280_humidity;BME280_pressure;Samples;Min_cycle;Max_cycle;Signal;HPM_P1;HPM_P2
2022/04/07 00:01:04;;;;;;;9.07;6.13;;;9.50;99.90;;;;;;5023404;28;20526;-84
2022/04/07 00:03:30;;;;;;;8.57;6.30;;;9.50;99.90;;;;;;5038903;28;20112;-84
2022/04/07 00:05:57;;;;;;;7.90;6.10;;;9.50;99.90;;;;;;5057349;28;20106;-85
2022/04/07 00:08:23;;;;;;;8.20;5.87;;;9.50;99.90;;;;;;5037695;28;20049;-84
2022/04/07 00:10:50;;;;;;;8.37;5.53;;;9.50;99.90;;;;;;5055851;28;20094;-84
2022/04/07 00:13:17;;;;;;;12.47;5.80;;;9.50;99.90;;;;;;5022569;28;20073;-84
2022/04/07 00:15:43;;;;;;;10.00;5.30;;;9.60;99.90;;;;;;5072971;28;20610;-83
2022/04/07 00:18:09;;;;;;;8.60;4.43;;;9.60;99.90;;;;;;5039049;28;20094;-83
2022/04/07 00:20:35;;;;;;;8.23;4.77;;;9.50;99.90;;;;;;5039438;28;20523;-83
2022/04/07 00:23:01;;;;;;;9.97;5.40;;;9.50;99.90;;;;;;5036153;28;20083;-83
2022/04/07 00:25:27;;;;;;;9.57;4.97;;;9.40;99.90;;;;;;5050857;28;20116;-83
2022/04/07 00:27:53;;;;;;;10.43;4.87;;;9.40;99.90;;;;;;5039379;28;20052;-83
2022/04/07 00:30:20;;;;;;;11.77;5.53;;;9.30;99.90;;;;;;5071420;28;20140;-83
2022/04/07 00:32:47;;;;;;;13.73;5.73;;;9.30;99.90;;;;;;5020351;28;20042;-84
2022/04/07 00:35:14;;;;;;;11.73;5.80;;;9.20;99.90;;;;;;5034520;28;20398;-84
2022/04/07 00:37:41;;;;;;;8.70;5.60;;;9.20;99.90;;;;;;5036074;28;20042;-83
2022/04/07 00:40:08;;;;;;;9.87;5.90;;;9.20;99.90;;;;;;5055789;28;20053;-84
2022/04/07 00:42:42;;;;;;;13.00;5.80;;;9.10;99.90;;;;;;5022383;28;20040;-84
2022/04/07 00:45:08;;;;;;;9.43;5.73;;;9.10;99.90;;;;;;5055567;28;20135;-83
2022/04/07 00:47:34;;;;;;;9.87;5.70;;;9.10;99.90;;;;;;5052468;28;20064;-83
2022/04/07 00:50:00;;;;;;;15.30;6.30;;;9.10;99.90;;;;;;5019754;28;20050;-84
2022/04/07 00:52:28;;;;;;;10.23;5.67;;;9.10;99.90;;;;;;5032519;28;20064;-83
2022/04/07 00:54:54;;;;;;;8.97;5.53;;;9.10;99.90;;;;;;5022354;28;20075;-82
2022/04/07 00:57:20;;;;;;;4.57;2.10;;;9.00;99.90;;;;;;5056068;28;20091;-83
2022/04/07 00:59:47;;;;;;;1.37;0.93;;;8.90;99.90;;;;;;5035183;28;20050;-83
2022/04/07 01:02:13;;;;;;;3.43;1.20;;;8.70;99.90;;;;;;5035709;28;20079;-82
2022/04/07 01:04:40;;;;;;;2.70;1.10;;;8.60;99.90;;;;;;5054154;28;20053;-83
2022/04/07 01:07:07;;;;;;;3.03;1.03;;;8.50;99.90;;;;;;5039791;28;20612;-83
2022/04/07 01:09:33;;;;;;;5.23;1.60;;;8.50;99.90;;;;;;5072027;28;20077;-83
2022/04/07 01:11:59;;;;;;;5.27;1.90;;;8.50;99.90;;;;;;5022115;28;20045;-84
2022/04/07 01:14:25;;;;;;;8.00;3.67;;;8.40;99.90;;;;;;5021310;28;20045;-84
2022/04/07 01:16:51;;;;;;;7.53;3.80;;;8.40;99.90;;;;;;5005483;28;20049;-83
2022/04/07 01:19:17;;;;;;;7.03;3.33;;;8.50;99.90;;;;;;5056523;28;20048;-83
2022/04/07 01:21:43;;;;;;;11.20;5.00;;;8.40;99.90;;;;;;5028732;28;20479;-84
2022/04/07 01:24:11;;;;;;;11.00;6.70;;;8.50;99.90;;;;;;5022600;28;20049;-84
2022/04/07 01:26:45;;;;;;;7.10;4.73;;;8.50;99.90;;;;;;5038328;28;20120;-83
2022/04/07 01:29:13;;;;;;;6.50;5.33;;;8.60;99.90;;;;;;5054916;28;20052;-83
2022/04/07 01:31:39;;;;;;;9.37;6.50;;;8.60;99.90;;;;;;5038768;28;20088;-83
2022/04/07 01:34:10;;;;;;;10.13;6.50;;;8.60;99.90;;;;;;5054548;28;20512;-84
2022/04/07 01:36:39;;;;;;;10.63;7.60;;;8.70;99.90;;;;;;5056322;28;20101;-84
2022/04/07 01:39:07;;;;;;;12.63;8.53;;;8.70;99.90;;;;;;5054923;28;20064;-83
2022/04/07 01:41:34;;;;;;;14.40;9.80;;;8.70;99.90;;;;;;5045948;28;20128;-83
2022/04/07 01:44:02;;;;;;;14.57;8.87;;;8.70;99.90;;;;;;5022181;28;20111;-83
2022/04/07 01:46:29;;;;;;;16.90;9.00;;;8.80;99.90;;;;;;5038354;28;20068;-83
2022/04/07 01:48:58;;;;;;;15.23;8.27;;;8.90;99.90;;;;;;5039577;28;20056;-83
2022/04/07 01:51:24;;;;;;;13.27;8.60;;;8.90;99.90;;;;;;5037259;28;20088;-83
2022/04/07 01:53:51;;;;;;;15.13;8.20;;;9.00;99.90;;;;;;5059013;28;20542;-82
2022/04/07 01:56:19;;;;;;;10.77;7.90;;;9.00;99.90;;;;;;5057439;28;20048;-83
2022/04/07 01:58:46;;;;;;;10.80;7.10;;;9.00;99.90;;;;;;5041915;28;20148;-83
2022/04/07 02:01:13;;;;;;;13.97;7.43;;;9.00;99.90;;;;;;5041925;28;20045;-83
2022/04/07 02:03:40;;;;;;;10.27;6.90;;;9.00;99.90;;;;;;5041065;28;20099;-82
2022/04/07 02:06:11;;;;;;;12.30;5.87;;;9.00;99.90;;;;;;5074720;28;20443;-84
2022/04/07 02:08:37;;;;;;;9.50;5.80;;;8.90;99.90;;;;;;5057121;28;20464;-83
2022/04/07 02:11:03;;;;;;;8.67;5.57;;;9.00;99.90;;;;;;5058677;28;20068;-83
2022/04/07 02:13:32;;;;;;;9.50;5.43;;;9.00;99.90;;;;;;5057720;28;20064;-82
2022/04/07 02:15:58;;;;;;;12.97;5.87;;;9.00;99.90;;;;;;5058256;28;20575;-83
2022/04/07 02:18:24;;;;;;;7.93;4.80;;;8.90;99.90;;;;;;5058272;28;20059;-83
2022/04/07 02:20:49;;;;;;;9.50;4.33;;;8.90;99.90;;;;;;5025125;28;20079;-83
2022/04/07 02:23:15;;;;;;;10.53;4.73;;;8.90;99.90;;;;;;5075571;28;20045;-82
2022/04/07 02:25:41;;;;;;;8.67;3.70;;;8.90;99.90;;;;;;5020598;28;20057;-82
2022/04/07 02:28:06;;;;;;;8.83;4.00;;;8.90;99.90;;;;;;5052396;28;20451;-83
2022/04/07 02:30:32;;;;;;;8.90;4.30;;;8.90;99.90;;;;;;5057681;28;20174;-83
2022/04/07 02:32:58;;;;;;;6.37;3.67;;;8.90;99.90;;;;;;5024527;28;20045;-83
2022/04/07 02:35:23;;;;;;;7.63;3.63;;;8.90;99.90;;;;;;5041177;28;20094;-83
2022/04/07 02:37:49;;;;;;;10.67;4.13;;;8.90;99.90;;;;;;5058427;28;20079;-83
2022/04/07 02:40:15;;;;;;;6.23;3.90;;;8.90;99.90;;;;;;5038253;28;20049;-83
2022/04/07 02:42:41;;;;;;;12.27;4.73;;;8.90;99.90;;;;;;5054783;28;20041;-83
2022/04/07 02:45:07;;;;;;;9.60;4.87;;;8.90;99.90;;;;;;5027116;28;20071;-83
2022/04/07 02:47:38;;;;;;;13.30;4.77;;;9.00;99.90;;;;;;5044510;28;20047;-83
2022/04/07 02:50:05;;;;;;;10.07;4.83;;;9.00;99.90;;;;;;5061222;28;20033;-84
2022/04/07 02:52:30;;;;;;;9.40;4.80;;;9.00;99.90;;;;;;5060485;28;20106;-83
2022/04/07 02:54:56;;;;;;;15.50;5.73;;;9.00;99.90;;;;;;5044631;28;20052;-83
2022/04/07 02:57:23;;;;;;;15.27;4.60;;;8.90;99.90;;;;;;5045230;28;20052;-82
2022/04/07 02:59:50;;;;;;;12.10;5.00;;;8.90;99.90;;;;;;5043498;28;20093;-82
2022/04/07 03:02:16;;;;;;;10.20;5.00;;;8.90;99.90;;;;;;5036413;28;20123;-83
2022/04/07 03:04:41;;;;;;;11.37;4.70;;;8.90;99.90;;;;;;5037911;28;20724;-83
2022/04/07 03:07:07;;;;;;;8.50;4.40;;;8.90;99.90;;;;;;5059703;28;20060;-84
2022/04/07 03:09:33;;;;;;;16.93;4.90;;;8.90;99.90;;;;;;5031917;28;20083;-83
2022/04/07 03:11:58;;;;;;;16.40;5.47;;;8.90;99.90;;;;;;5060491;28;20131;-83
2022/04/07 03:14:27;;;;;;;12.90;5.03;;;8.90;99.90;;;;;;5040914;28;20712;-83
2022/04/07 03:16:53;;;;;;;11.17;4.70;;;8.90;99.90;;;;;;5021064;28;20067;-84
2022/04/07 03:19:19;;;;;;;13.10;5.53;;;8.90;99.90;;;;;;5075104;28;20037;-83
2022/04/07 03:21:45;;;;;;;14.37;4.63;;;8.90;99.90;;;;;;5027005;28;20044;-82
2022/04/07 03:24:11;;;;;;;9.47;4.60;;;8.90;99.90;;;;;;5060356;28;20051;-83
2022/04/07 03:26:38;;;;;;;13.73;5.10;;;8.90;99.90;;;;;;5027731;28;20984;-83
2022/04/07 03:29:04;;;;;;;13.33;5.63;;;8.90;99.90;;;;;;5024620;28;20795;-84
2022/04/07 03:31:30;;;;;;;12.37;4.03;;;8.90;99.90;;;;;;5057226;28;20066;-84
2022/04/07 03:33:55;;;;;;;10.50;4.00;;;8.80;99.90;;;;;;5021801;28;20040;-83
2022/04/07 03:36:21;;;;;;;13.00;3.93;;;8.80;99.90;;;;;;5077115;28;20059;-82
2022/04/07 03:38:48;;;;;;;7.60;2.80;;;8.80;99.90;;;;;;5042859;28;20107;-83
2022/04/07 03:41:15;;;;;;;8.17;3.17;;;8.80;99.90;;;;;;5040951;28;20080;-84
2022/04/07 03:43:42;;;;;;;10.93;3.90;;;8.70;99.90;;;;;;5059254;28;20558;-83
2022/04/07 03:46:09;;;;;;;9.83;4.17;;;8.70;99.90;;;;;;5058905;28;20060;-83
2022/04/07 03:48:34;;;;;;;6.43;3.90;;;8.70;99.90;;;;;;5042853;28;20051;-83
2022/04/07 03:51:00;;;;;;;10.03;3.70;;;8.70;99.90;;;;;;5022651;28;20037;-84
2022/04/07 03:53:26;;;;;;;9.50;4.13;;;8.70;99.90;;;;;;5023873;28;20052;-83
2022/04/07 03:55:52;;;;;;;7.80;3.60;;;8.70;99.90;;;;;;5020028;28;20094;-82
2022/04/07 03:58:17;;;;;;;9.13;3.53;;;8.70;99.90;;;;;;5058971;28;20044;-83
2022/04/07 04:00:43;;;;;;;10.50;3.63;;;8.70;99.90;;;;;;5041944;28;20507;-83
2022/04/07 04:03:09;;;;;;;10.40;3.17;;;8.70;99.90;;;;;;5053191;28;20131;-83
2022/04/07 04:05:35;;;;;;;8.23;3.27;;;8.60;99.90;;;;;;5042724;28;20041;-83
2022/04/07 04:08:00;;;;;;;7.53;3.40;;;8.60;99.90;;;;;;5022796;28;20083;-84
2022/04/07 04:10:26;;;;;;;13.20;3.70;;;8.60;99.90;;;;;;5007090;28;20041;-82
2022/04/07 04:12:52;;;;;;;9.07;3.60;;;8.60;99.90;;;;;;5058231;28;20071;-82
2022/04/07 04:15:18;;;;;;;8.33;3.37;;;8.70;99.90;;;;;;5043121;28;20055;-82
2022/04/07 04:17:44;;;;;;;8.83;4.10;;;8.70;99.90;;;;;;5042439;28;20040;-82
2022/04/07 04:20:10;;;;;;;10.93;4.30;;;8.70;99.90;;;;;;5023192;28;20049;-83
2022/04/07 04:22:37;;;;;;;12.00;4.77;;;8.70;99.90;;;;;;5025099;28;20157;-84
2022/04/07 04:25:04;;;;;;;12.70;4.63;;;8.70;99.90;;;;;;5041816;28;20044;-82
2022/04/07 04:27:29;;;;;;;14.43;4.50;;;8.70;99.90;;;;;;5053074;28;20072;-83
2022/04/07 04:29:55;;;;;;;12.40;4.73;;;8.70;99.90;;;;;;5025752;28;20067;-83
2022/04/07 04:32:21;;;;;;;17.07;4.90;;;8.80;99.90;;;;;;5058512;28;20049;-80
2022/04/07 04:34:47;;;;;;;12.80;5.27;;;8.80;99.90;;;;;;5055422;28;20060;-83
2022/04/07 04:37:12;;;;;;;16.97;5.00;;;8.80;99.90;;;;;;5024665;28;20036;-83
2022/04/07 04:39:38;;;;;;;15.03;5.70;;;8.80;99.90;;;;;;5042511;28;20051;-83
2022/04/07 04:42:05;;;;;;;19.37;5.63;;;8.80;99.90;;;;;;5076090;28;20076;-83
2022/04/07 04:44:31;;;;;;;16.20;5.47;;;8.70;99.90;;;;;;5023321;28;20041;-83
2022/04/07 04:46:56;;;;;;;17.43;5.57;;;8.80;99.90;;;;;;5057205;28;20072;-82
2022/04/07 04:49:22;;;;;;;17.70;5.43;;;8.70;99.90;;;;;;5078324;28;20068;-82
2022/04/07 04:51:48;;;;;;;16.37;5.73;;;8.80;99.90;;;;;;5058531;28;20476;-83
2022/04/07 04:54:14;;;;;;;18.47;5.17;;;8.80;99.90;;;;;;5059336;28;20127;-83
2022/04/07 04:56:41;;;;;;;17.80;5.50;;;8.80;99.90;;;;;;5058960;28;20048;-82
2022/04/07 04:59:07;;;;;;;19.93;5.07;;;8.70;99.90;;;;;;5058030;28;20045;-84
2022/04/07 05:01:33;;;;;;;15.00;5.00;;;8.80;99.90;;;;;;5026024;28;20051;-84
2022/04/07 05:03:59;;;;;;;18.57;4.63;;;8.80;99.90;;;;;;5051260;28;20040;-84
2022/04/07 05:06:25;;;;;;;21.73;4.50;;;8.80;99.90;;;;;;5042642;28;20083;-83
2022/04/07 05:08:51;;;;;;;17.37;5.07;;;8.70;99.90;;;;;;5056978;28;20045;-83
2022/04/07 05:11:17;;;;;;;18.23;5.27;;;8.70;99.90;;;;;;5059361;28;20051;-84
2022/04/07 05:13:42;;;;;;;18.63;4.70;;;8.70;99.90;;;;;;5024023;28;20114;-83
2022/04/07 05:16:09;;;;;;;19.00;4.70;;;8.60;99.90;;;;;;5055834;28;20055;-83
2022/04/07 05:18:35;;;;;;;18.97;5.33;;;8.60;99.90;;;;;;5021561;28;20060;-86
2022/04/07 05:21:01;;;;;;;26.63;5.53;;;8.60;99.90;;;;;;5020079;28;20412;-85
2022/04/07 05:23:27;;;;;;;21.60;5.90;;;8.50;99.90;;;;;;5034044;28;20044;-85
2022/04/07 05:25:52;;;;;;;22.13;6.17;;;8.50;99.90;;;;;;5050060;28;20053;-84
2022/04/07 05:28:18;;;;;;;24.63;6.87;;;8.50;99.90;;;;;;5061500;28;20052;-83
2022/04/07 05:30:44;;;;;;;21.57;6.30;;;8.50;99.90;;;;;;5061101;28;20044;-85
2022/04/07 05:33:11;;;;;;;18.50;7.03;;;8.50;99.90;;;;;;5059117;28;20040;-89
2022/04/07 05:35:37;;;;;;;21.20;7.37;;;8.40;99.90;;;;;;5036465;28;20060;-89
2022/04/07 05:38:03;;;;;;;20.87;6.73;;;8.40;99.90;;;;;;5045114;28;20044;-87
2022/04/07 05:40:30;;;;;;;17.53;6.20;;;8.40;99.90;;;;;;5045487;28;20037;-88
2022/04/07 05:42:56;;;;;;;17.20;6.43;;;8.50;99.90;;;;;;5039227;28;20044;-86
2022/04/07 05:45:23;;;;;;;15.97;5.80;;;8.50;99.90;;;;;;5026748;28;20114;-88
2022/04/07 05:47:49;;;;;;;16.90;6.00;;;8.50;99.90;;;;;;5043793;28;20094;-87
2022/04/07 05:50:14;;;;;;;15.53;5.60;;;8.50;99.90;;;;;;5026513;28;20498;-88
2022/04/07 05:52:40;;;;;;;15.53;6.00;;;8.50;99.90;;;;;;5020644;28;20048;-87
2022/04/07 05:55:06;;;;;;;14.13;5.73;;;8.50;99.90;;;;;;5037711;28;20048;-88
2022/04/07 05:57:32;;;;;;;18.07;5.83;;;8.50;99.90;;;;;;5034770;28;20045;-87
2022/04/07 06:00:12;;;;;;;14.50;6.70;;;8.50;99.90;;;;;;5017898;28;20052;-88
2022/04/07 06:02:42;;;;;;;5.93;2.33;;;8.60;99.90;;;;;;5052276;28;20037;-88
2022/04/07 06:05:09;;;;;;;2.27;1.00;;;8.20;99.90;;;;;;5037835;28;20076;-84
2022/04/07 06:07:35;;;;;;;3.27;0.60;;;7.60;99.90;;;;;;5043635;28;20212;-78
2022/04/07 06:10:02;;;;;;;1.20;0.47;;;6.90;99.90;;;;;;5039038;28;20044;-84
2022/04/07 06:12:27;;;;;;;2.10;0.40;;;6.40;99.90;;;;;;5060628;28;20074;-83
2022/04/07 06:14:53;;;;;;;0.47;0.40;;;6.20;99.90;;;;;;5078859;28;20890;-85
2022/04/07 06:17:19;;;;;;;2.83;0.40;;;6.00;99.90;;;;;;5040889;28;20154;-88
2022/04/07 06:19:45;;;;;;;1.23;0.40;;;5.80;99.90;;;;;;5019801;28;20036;-87
2022/04/07 06:22:12;;;;;;;1.07;0.40;;;5.70;99.90;;;;;;5057037;28;20048;-87
2022/04/07 06:24:38;;;;;;;2.70;0.83;;;5.70;99.90;;;;;;5044235;28;20499;-86
2022/04/07 06:27:04;;;;;;;2.93;0.70;;;5.70;99.90;;;;;;5026657;28;20049;-88
2022/04/07 06:29:30;;;;;;;2.67;0.90;;;5.60;99.90;;;;;;5027377;28;20108;-87
2022/04/07 06:31:55;;;;;;;3.43;0.90;;;5.60;99.90;;;;;;5043499;28;20068;-86
2022/04/07 06:34:21;;;;;;;3.80;0.90;;;5.60;99.90;;;;;;5043837;28;20055;-86
2022/04/07 06:36:47;;;;;;;4.37;1.10;;;5.50;99.90;;;;;;5044998;28;20051;-87
2022/04/07 06:39:13;;;;;;;6.57;1.50;;;5.50;99.90;;;;;;5027026;28;20048;-87
2022/04/07 06:41:39;;;;;;;3.10;1.07;;;5.50;99.90;;;;;;5058484;28;20079;-86
2022/04/07 06:44:05;;;;;;;5.83;1.17;;;5.50;99.90;;;;;;5044784;28;20048;-87
2022/04/07 06:46:32;;;;;;;3.63;1.00;;;5.50;99.90;;;;;;5060550;28;20088;-88
2022/04/07 06:48:59;;;;;;;4.37;1.00;;;5.50;99.90;;;;;;5044738;28;20100;-87
2022/04/07 06:51:25;;;;;;;3.90;1.03;;;5.50;99.90;;;;;;5056036;28;20104;-86
2022/04/07 06:53:51;;;;;;;5.23;0.90;;;5.50;99.90;;;;;;5044861;28;20071;-85
2022/04/07 06:56:16;;;;;;;3.00;1.00;;;5.50;99.90;;;;;;5076414;28;20055;-88
2022/04/07 06:58:42;;;;;;;3.20;0.70;;;5.50;99.90;;;;;;5043606;28;20113;-87
2022/04/07 07:01:08;;;;;;;3.47;0.70;;;5.60;99.90;;;;;;5024370;28;20088;-87
2022/04/07 07:03:34;;;;;;;2.33;0.77;;;5.70;99.90;;;;;;5033247;28;20062;-83
2022/04/07 07:06:00;;;;;;;3.03;1.00;;;5.70;99.90;;;;;;5043646;28;20044;-87
2022/04/07 07:08:26;;;;;;;3.33;0.80;;;5.70;99.90;;;;;;5043091;28;20489;-87
2022/04/07 07:10:52;;;;;;;3.47;0.80;;;5.80;99.90;;;;;;5043955;28;20040;-86
2022/04/07 07:13:21;;;;;;;6.67;0.80;;;5.80;99.90;;;;;;5023011;28;20049;-87
2022/04/07 07:15:50;;;;;;;1.43;0.80;;;5.80;99.90;;;;;;5039765;28;20213;-86
2022/04/07 07:18:17;;;;;;;0.90;0.60;;;5.90;99.90;;;;;;5022994;28;20045;-87
2022/04/07 07:20:42;;;;;;;1.37;0.90;;;5.80;99.90;;;;;;5023676;28;20102;-87
2022/04/07 07:23:08;;;;;;;2.03;0.80;;;5.90;99.90;;;;;;5024207;28;20067;-87
2022/04/07 07:25:35;;;;;;;4.03;0.80;;;5.80;99.90;;;;;;5025699;28;20048;-85
2022/04/07 07:28:04;;;;;;;1.63;0.80;;;5.80;99.90;;;;;;5026499;28;20056;-87
2022/04/07 07:30:29;;;;;;;4.00;1.00;;;5.80;99.90;;;;;;5018350;28;20041;-87
2022/04/07 07:32:55;;;;;;;0.87;0.53;;;5.80;99.90;;;;;;5036516;28;20051;-87
2022/04/07 07:35:22;;;;;;;3.57;0.93;;;5.80;99.90;;;;;;5039743;28;20048;-86
2022/04/07 07:38:00;;;;;;;2.53;0.80;;;5.80;99.90;;;;;;5018215;28;20062;-87
2022/04/07 07:40:28;;;;;;;2.43;0.70;;;5.80;99.90;;;;;;5026165;28;20118;-85
2022/04/07 07:42:56;;;;;;;1.80;0.60;;;5.90;99.90;;;;;;5059275;28;20502;-87
2022/04/07 07:45:24;;;;;;;2.57;0.70;;;5.80;99.90;;;;;;5071716;28;20048;-88
2022/04/07 07:47:53;;;;;;;2.87;0.73;;;5.80;99.90;;;;;;5036818;28;20106;-84
2022/04/07 07:50:19;;;;;;;4.83;1.20;;;5.80;99.90;;;;;;5075357;28;20059;-86
2022/04/07 07:52:45;;;;;;;3.50;0.90;;;5.80;99.90;;;;;;5042905;28;20052;-87
2022/04/07 07:55:11;;;;;;;1.27;0.80;;;5.80;99.90;;;;;;5026987;28;20071;-87
2022/04/07 07:57:37;;;;;;;2.50;0.80;;;5.80;99.90;;;;;;5026875;28;20040;-88
2022/04/07 08:00:07;;;;;;;4.27;1.10;;;5.90;99.90;;;;;;5058745;28;20037;-87
2022/04/07 08:02:34;;;;;;;3.90;0.60;;;5.80;99.90;;;;;;5075803;28;20052;-87
2022/04/07 08:05:01;;;;;;;4.67;1.10;;;5.90;99.90;;;;;;5008951;28;20052;-87
2022/04/07 08:07:27;;;;;;;2.77;0.80;;;5.90;99.90;;;;;;5041839;28;20055;-87
2022/04/07 08:09:56;;;;;;;5.97;1.20;;;5.90;99.90;;;;;;5059614;28;20064;-86
2022/04/07 08:12:23;;;;;;;3.30;0.97;;;5.90;99.90;;;;;;5041558;28;20056;-87
2022/04/07 08:14:49;;;;;;;4.50;0.90;;;6.00;99.90;;;;;;5042978;28;20079;-87
2022/04/07 08:17:15;;;;;;;2.67;0.97;;;6.00;99.90;;;;;;5042150;28;20040;-87
2022/04/07 08:19:41;;;;;;;3.23;1.20;;;6.00;99.90;;;;;;5037370;28;20054;-87
2022/04/07 08:22:07;;;;;;;4.97;1.10;;;6.10;99.90;;;;;;5023338;28;20112;-88
2022/04/07 08:24:34;;;;;;;3.57;0.90;;;6.10;99.90;;;;;;5042604;28;20052;-88
2022/04/07 08:27:01;;;;;;;2.43;0.87;;;6.10;99.90;;;;;;5039986;28;20070;-88
2022/04/07 08:29:26;;;;;;;2.83;0.80;;;6.10;99.90;;;;;;5058720;28;20044;-87
2022/04/07 08:31:52;;;;;;;4.23;1.10;;;6.10;99.90;;;;;;5026694;28;20041;-87
2022/04/07 08:34:21;;;;;;;3.77;1.13;;;6.20;99.90;;;;;;5015489;28;20032;-89
2022/04/07 08:36:48;;;;;;;4.63;0.90;;;6.30;99.90;;;;;;5042442;28;20041;-86
2022/04/07 08:39:14;;;;;;;2.43;0.90;;;6.30;99.90;;;;;;5057332;28;20041;-86
2022/04/07 08:41:44;;;;;;;4.50;1.00;;;6.40;99.90;;;;;;5079928;28;20324;-85
2022/04/07 08:44:10;;;;;;;2.17;1.00;;;6.40;99.90;;;;;;5028927;28;20758;-84
2022/04/07 08:46:35;;;;;;;3.03;1.10;;;6.60;99.90;;;;;;5008514;28;20064;-86
2022/04/07 08:49:04;;;;;;;2.97;1.00;;;6.60;99.90;;;;;;5026451;28;20044;-87
2022/04/07 08:51:31;;;;;;;2.70;1.03;;;6.70;99.90;;;;;;5022686;28;20070;-85
2022/04/07 08:53:57;;;;;;;3.50;1.20;;;6.80;99.90;;;;;;5057633;28;20057;-86
2022/04/07 08:56:23;;;;;;;5.33;1.27;;;7.00;99.90;;;;;;5023554;28;20068;-86
2022/04/07 08:58:50;;;;;;;2.23;1.00;;;7.20;99.90;;;;;;5022044;28;20044;-87
2022/04/07 09:01:16;;;;;;;4.97;0.93;;;7.50;99.90;;;;;;5018337;28;20041;-86
2022/04/07 09:03:43;;;;;;;4.47;0.90;;;7.80;99.90;;;;;;5038113;28;20076;-86
2022/04/07 09:06:10;;;;;;;2.80;1.00;;;8.10;99.90;;;;;;5027235;28;20044;-87
2022/04/07 09:08:40;;;;;;;3.83;1.10;;;8.20;99.90;;;;;;5020570;28;20049;-86
2022/04/07 09:11:08;;;;;;;3.50;1.00;;;8.30;99.90;;;;;;5061867;28;20582;-85
2022/04/07 09:13:39;;;;;;;3.23;0.97;;;8.40;99.90;;;;;;5061483;28;20132;-85
2022/04/07 09:16:08;;;;;;;3.83;1.08;;;8.60;99.90;;;;;;5048185;28;20059;-86
2022/04/07 09:18:38;;;;;;;4.17;1.37;;;8.80;99.90;;;;;;5063803;28;20079;-86
2022/04/07 09:21:05;;;;;;;2.93;1.10;;;8.90;99.90;;;;;;5043079;28;20087;-86
2022/04/07 09:23:42;;;;;;;2.30;1.20;;;9.00;99.90;;;;;;5041113;28;20040;-82
2022/04/07 09:26:15;;;;;;;4.73;1.27;;;9.10;99.90;;;;;;5078435;28;20047;-86
2022/04/07 09:28:41;;;;;;;3.60;1.10;;;9.30;99.90;;;;;;5062210;28;20071;-84
2022/04/07 09:31:15;;;;;;;5.23;1.60;;;9.40;99.90;;;;;;5045817;28;20053;-83
2022/04/07 09:33:42;;;;;;;7.30;1.30;;;9.50;99.90;;;;;;5061716;28;20045;-84
2022/04/07 09:36:21;;;;;;;4.60;1.30;;;9.60;99.90;;;;;;5046335;28;20044;-86
2022/04/07 09:38:55;;;;;;;4.53;1.10;;;9.80;99.90;;;;;;5061545;28;20044;-86
2022/04/07 09:41:23;;;;;;;6.10;1.53;;;9.90;99.90;;;;;;5029070;28;20044;-87
2022/04/07 09:43:57;;;;;;;2.70;1.70;;;10.10;99.90;;;;;;5041884;28;20075;-86
2022/04/07 09:46:32;;;;;;;9.27;1.70;;;10.20;99.90;;;;;;5028716;28;20091;-86
2022/04/07 09:49:08;;;;;;;5.10;1.30;;;10.10;99.90;;;;;;5079114;28;20051;-86
2022/04/07 09:51:38;;;;;;;4.47;1.33;;;9.90;99.90;;;;;;5037335;28;20048;-86
2022/04/07 09:54:09;;;;;;;3.23;1.43;;;9.90;99.90;;;;;;5028168;28;20048;-88
2022/04/07 09:56:35;;;;;;;5.38;1.25;;;9.80;99.90;;;;;;5054100;28;20048;-88
2022/04/07 09:59:05;;;;;;;7.47;1.73;;;9.70;99.90;;;;;;5011465;28;20045;-87
2022/04/07 10:01:35;;;;;;;4.40;1.60;;;9.70;99.90;;;;;;5056483;28;20132;-88
2022/04/07 10:04:03;;;;;;;7.57;1.57;;;9.60;99.90;;;;;;5042438;28;20079;-88
2022/04/07 10:06:33;;;;;;;8.20;2.23;;;9.60;99.90;;;;;;5062401;28;20439;-89
2022/04/07 10:09:02;;;;;;;7.07;1.50;;;9.80;99.90;;;;;;5056437;28;20053;-87
2022/04/07 10:11:32;;;;;;;9.80;1.80;;;9.90;99.90;;;;;;5074467;28;20078;-88
2022/04/07 10:13:58;;;;;;;7.00;1.70;;;10.00;99.90;;;;;;5022019;28;20071;-86
2022/04/07 10:16:25;;;;;;;10.80;1.67;;;10.00;99.90;;;;;;5028252;28;20048;-87
2022/04/07 10:19:07;;;;;;;5.43;1.93;;;9.90;99.90;;;;;;5052214;28;20119;-87
2022/04/07 10:21:53;;;;;;;;;;;9.90;99.90;;;;;;5056223;28;20102;-86
2022/04/07 10:24:41;;;;;;;7.67;2.10;;;9.80;99.90;;;;;;5044109;28;19920;-86
2022/04/07 10:27:09;;;;;;;9.97;1.83;;;9.80;99.90;;;;;;5034475;28;20041;-87
2022/04/07 10:29:37;;;;;;;7.57;2.30;;;9.80;99.90;;;;;;5043151;28;20036;-88
2022/04/07 10:32:12;;;;;;;9.00;2.00;;;9.80;99.90;;;;;;5060924;28;20044;-88
2022/04/07 10:34:58;;;;;;;8.77;2.13;;;9.90;99.90;;;;;;5039290;28;20044;-85
2022/04/07 10:37:45;;;;;;;9.87;2.00;;;9.90;99.90;;;;;;5060119;28;20060;-87
2022/04/07 10:40:37;;;;;;;10.17;2.43;;;9.80;99.90;;;;;;5059797;28;20044;-85
2022/04/07 10:43:10;;;;;;;7.57;2.17;;;9.60;99.90;;;;;;5057408;28;20377;-86
2022/04/07 10:45:38;;;;;;;8.67;2.30;;;9.40;99.90;;;;;;5039662;28;20418;-87
2022/04/07 10:48:19;;;;;;;13.40;2.73;;;9.30;99.90;;;;;;5023415;28;20049;-86
2022/04/07 10:51:07;;;;;;;8.73;2.10;;;9.50;99.90;;;;;;5040501;28;20080;-86
2022/04/07 10:53:53;;;;;;;10.17;2.47;;;9.70;99.90;;;;;;5041046;28;20326;-85
2022/04/07 10:56:31;;;;;;;11.33;2.47;;;9.90;99.90;;;;;;5036897;28;20132;-84
2022/04/07 10:59:13;;;;;;;12.03;2.77;;;10.10;99.90;;;;;;5014427;28;20045;-86
2022/04/07 11:01:42;;;;;;;10.85;2.30;;;10.50;99.90;;;;;;5032308;28;20045;-85
2022/04/07 11:04:17;;;;;;;12.63;2.93;;;10.50;99.90;;;;;;5018202;28;20049;-88
2022/04/07 11:07:09;;;;;;;10.17;2.40;;;10.60;99.90;;;;;;5022502;28;20084;-88
2022/04/07 11:09:53;;;;;;;9.20;2.28;;;10.60;99.90;;;;;;5023654;28;20049;-87
2022/04/07 11:12:39;;;;;;;7.70;2.43;;;10.30;99.90;;;;;;5020962;28;20128;-83
2022/04/07 11:15:18;;;;;;;13.10;2.60;;;10.10;99.90;;;;;;5018679;28;20448;-84
2022/04/07 11:17:46;;;;;;;9.03;2.37;;;9.90;99.90;;;;;;5014287;28;20052;-83
2022/04/07 11:20:23;;;;;;;8.37;2.60;;;9.80;99.90;;;;;;5014599;28;20053;-83
2022/04/07 11:23:04;;;;;;;7.80;2.27;;;9.70;99.90;;;;;;5027328;28;20048;-90
2022/04/07 11:25:31;;;;;;;11.77;2.53;;;9.60;99.90;;;;;;5022016;28;20056;-86
2022/04/07 11:28:19;;;;;;;10.23;3.03;;;9.50;99.90;;;;;;5035036;28;20296;-87
2022/04/07 11:31:00;;;;;;;9.43;2.77;;;9.40;99.90;;;;;;5039211;28;20048;-81
2022/04/07 11:33:30;;;;;;;9.30;2.40;;;9.30;99.90;;;;;;5032037;28;20087;-80
2022/04/07 11:35:59;;;;;;;8.97;2.67;;;9.20;99.90;;;;;;5007545;28;20131;-80
2022/04/07 11:38:54;;;;;;;12.50;4.50;;;9.40;99.90;;;;;;5038847;28;20044;-80
2022/04/07 11:41:20;;;;;;;13.57;2.43;;;9.60;99.90;;;;;;5019070;28;20413;-81
2022/04/07 11:43:49;;;;;;;11.23;3.13;;;9.90;99.90;;;;;;5006544;28;20044;-79
2022/04/07 11:46:24;;;;;;;9.83;2.93;;;10.10;99.90;;;;;;5022817;28;20082;-81
2022/04/07 11:48:50;;;;;;;10.67;3.47;;;10.30;99.90;;;;;;5027764;28;20052;-81
2022/04/07 11:51:19;;;;;;;11.60;3.20;;;10.50;99.90;;;;;;5017952;28;20036;-79
2022/04/07 11:53:51;;;;;;;12.10;2.90;;;10.50;99.90;;;;;;5059849;28;20048;-82
2022/04/07 11:56:34;;;;;;;13.48;3.85;;;10.60;99.90;;;;;;5057775;28;20062;-83
2022/04/07 11:59:01;;;;;;;13.77;2.97;;;10.80;99.90;;;;;;5036158;28;20045;-82
2022/04/07 12:01:28;;;;;;;11.40;3.27;;;10.90;99.90;;;;;;5037294;28;20041;-82
2022/04/07 12:04:02;;;;;;;12.43;2.93;;;10.80;99.90;;;;;;5053702;28;20133;-82
2022/04/07 12:06:30;;;;;;;11.77;2.70;;;10.60;99.90;;;;;;5059625;28;20052;-82
2022/04/07 12:08:58;;;;;;;10.13;2.70;;;10.50;99.90;;;;;;5039256;28;20461;-82
2022/04/07 12:11:27;;;;;;;10.97;2.60;;;10.30;99.90;;;;;;5036440;28;20078;-82
2022/04/07 12:13:55;;;;;;;11.77;2.43;;;10.30;99.90;;;;;;5040834;28;20503;-82
2022/04/07 12:16:24;;;;;;;12.20;3.20;;;10.40;99.90;;;;;;5042168;28;20048;-79
2022/04/07 12:18:57;;;;;;;13.00;3.00;;;10.40;99.90;;;;;;5039536;28;20094;-83
2022/04/07 12:21:23;;;;;;;8.77;2.87;;;10.40;99.90;;;;;;5025832;28;20067;-84
2022/04/07 12:24:09;;;;;;;11.90;2.80;;;10.60;99.90;;;;;;5059199;28;20048;-84
2022/04/07 12:26:47;;;;;;;11.83;2.97;;;10.70;99.90;;;;;;5055544;28;20036;-84
2022/04/07 12:29:14;;;;;;;12.53;2.83;;;10.70;99.90;;;;;;5058239;28;20422;-85
2022/04/07 12:31:40;;;;;;;8.03;2.63;;;10.60;99.90;;;;;;5077855;28;20594;-85
2022/04/07 12:34:12;;;;;;;7.03;3.30;;;10.60;99.90;;;;;;5015234;28;20741;-85
2022/04/07 12:36:42;;;;;;;9.68;2.63;;;10.60;99.90;;;;;;5010218;28;20053;-86
2022/04/07 12:39:10;;;;;;;10.27;2.33;;;10.50;99.90;;;;;;5018276;28;20055;-84
2022/04/07 12:41:46;;;;;;;11.20;2.50;;;10.50;99.90;;;;;;5055213;28;20132;-84
2022/04/07 12:44:17;;;;;;;9.20;2.37;;;10.40;99.90;;;;;;5036711;28;20057;-87
2022/04/07 12:46:50;;;;;;;12.87;2.70;;;10.60;99.90;;;;;;5019431;28;20053;-87
2022/04/07 12:49:33;;;;;;;10.57;3.00;;;10.80;99.90;;;;;;5056510;28;20099;-87
2022/04/07 12:52:11;;;;;;;6.37;2.57;;;10.80;99.90;;;;;;5036012;28;20061;-85
2022/04/07 12:54:54;;;;;;;13.17;3.10;;;10.80;99.90;;;;;;5051253;28;20686;-88
2022/04/07 12:57:19;;;;;;;7.00;2.43;;;11.00;99.90;;;;;;5040269;28;20048;-80
2022/04/07 12:59:57;;;;;;;13.20;2.17;;;11.00;99.90;;;;;;5010450;28;20037;-85